Time;durP1;ratioP1;P1;durP2;ratioP2;P2;SDS_P1;SDS_P2;PMS_P1;PMS_P2;Temp;Humidity;BMP_temperature;BMP_pressure;BME280_temperature;BME280_humidity;BME280_pressure;Samples;Min_cycle;Max_cycle;Signal;HPM_P1;HPM_P2
2023/06/25 00:01:28;;;;;;;3.88;3.45;;;21.10;99.90;;;;;;5071351;28;20172;-47
2023/06/25 00:03:53;;;;;;;5.57;3.38;;;21.30;99.90;;;;;;5053694;28;20617;-47
2023/06/25 00:06:19;;;;;;;6.78;3.13;;;21.20;99.90;;;;;;5071118;28;20185;-46
2023/06/25 00:08:45;;;;;;;4.25;2.90;;;21.20;99.90;;;;;;5071094;28;20217;-46
2023/06/25 00:11:11;;;;;;;5.40;2.90;;;21.30;99.90;;;;;;5071004;28;20162;-47
2023/06/25 00:13:37;;;;;;;6.28;2.75;;;21.30;99.90;;;;;;5071072;28;20213;-49
2023/06/25 00:16:02;;;;;;;15.75;3.30;;;21.20;99.90;;;;;;5071246;28;20166;-49
2023/06/25 00:18:28;;;;;;;5.55;3.00;;;21.20;99.90;;;;;;5071196;28;20166;-49
2023/06/25 00:20:54;;;;;;;4.68;3.03;;;21.00;99.90;;;;;;5071856;28;20166;-50
2023/06/25 00:23:20;;;;;;;3.78;2.75;;;;;;;;;;5071804;28;20197;-49
2023/06/25 00:25:46;;;;;;;3.95;2.80;;;20.90;99.90;;;;;;5071142;28;20209;-48
2023/06/25 00:28:12;;;;;;;4.30;2.90;;;;;;;;;;5071260;28;20166;-47
2023/06/25 00:30:38;;;;;;;5.50;2.80;;;20.70;99.90;;;;;;5071064;28;20158;-49
2023/06/25 00:33:03;;;;;;;5.63;3.50;;;20.90;99.90;;;;;;5071202;28;20209;-47
2023/06/25 00:35:59;;;;;;;4.60;2.90;;;20.80;99.90;;;;;;5071029;28;20661;-47
2023/06/25 00:38:25;;;;;;;4.70;2.83;;;20.90;99.90;;;;;;5071057;28;20174;-46
2023/06/25 00:40:50;;;;;;;3.22;2.92;;;20.50;99.90;;;;;;5071394;28;20174;-46
2023/06/25 00:43:20;;;;;;;4.82;3.15;;;20.80;99.90;;;;;;5070948;28;20193;-46
2023/06/25 00:45:46;;;;;;;6.45;3.50;;;20.70;99.90;;;;;;5070927;28;20162;-46
2023/06/25 00:48:12;;;;;;;4.43;3.28;;;20.60;99.90;;;;;;5070874;28;20653;-46
2023/06/25 00:50:38;;;;;;;8.80;3.30;;;;;;;;;;5070350;28;20170;-46
2023/06/25 00:53:08;;;;;;;3.35;2.90;;;20.50;99.90;;;;;;5070658;28;20284;-46
2023/06/25 00:55:34;;;;;;;8.40;3.22;;;20.50;99.90;;;;;;5070914;28;20513;-46
2023/06/25 00:58:00;;;;;;;5.95;2.92;;;20.60;99.90;;;;;;5070849;28;20518;-46
2023/06/25 01:00:30;;;;;;;5.40;3.13;;;20.60;99.90;;;;;;5073980;28;20178;-47
2023/06/25 01:03:03;;;;;;;4.22;3.20;;;20.60;99.90;;;;;;5074387;28;20162;-46
2023/06/25 01:05:54;;;;;;;7.40;3.38;;;20.60;99.90;;;;;;5074580;28;20166;-47
2023/06/25 01:08:21;;;;;;;5.18;3.00;;;20.50;99.90;;;;;;5074433;28;20221;-47
2023/06/25 01:10:47;;;;;;;6.63;3.08;;;20.50;99.90;;;;;;5074499;28;20172;-46
2023/06/25 01:13:13;;;;;;;7.65;3.40;;;;;;;;;;5074031;28;20575;-47
2023/06/25 01:15:40;;;;;;;4.15;3.03;;;20.20;99.90;;;;;;5074309;28;20170;-46
2023/06/25 01:18:06;;;;;;;6.30;3.22;;;20.30;99.90;;;;;;5074121;28;20641;-47
2023/06/25 01:20:32;;;;;;;5.03;3.08;;;20.20;99.90;;;;;;5074341;28;20174;-46
2023/06/25 01:22:58;;;;;;;8.65;3.35;;;20.30;99.90;;;;;;5074313;28;20625;-47
2023/06/25 01:25:24;;;;;;;4.45;3.30;;;20.30;99.90;;;;;;5074532;28;20189;-46
2023/06/25 01:27:50;;;;;;;4.32;3.22;;;20.20;99.90;;;;;;5074460;28;20190;-47
2023/06/25 01:30:17;;;;;;;5.28;3.25;;;20.30;99.90;;;;;;5074224;28;20551;-46
2023/06/25 01:32:44;;;;;;;5.05;3.10;;;20.20;99.90;;;;;;5073873;28;20685;-47
2023/06/25 01:35:11;;;;;;;4.50;3.25;;;20.10;99.90;;;;;;5074164;28;20185;-46
2023/06/25 01:37:36;;;;;;;6.70;3.28;;;19.90;99.90;;;;;;5073768;28;20159;-47
2023/06/25 01:40:02;;;;;;;6.05;3.15;;;20.20;99.90;;;;;;5073788;28;20170;-47
2023/06/25 01:42:28;;;;;;;7.90;3.97;;;20.20;99.90;;;;;;5073667;28;20219;-47
2023/06/25 01:44:53;;;;;;;5.38;3.13;;;20.10;99.90;;;;;;5074124;28;20174;-46
2023/06/25 01:47:19;;;;;;;8.75;3.28;;;20.40;99.90;;;;;;5073658;28;20166;-46
2023/06/25 01:49:44;;;;;;;8.10;4.03;;;20.10;99.90;;;;;;5073637;28;20525;-46
2023/06/25 01:52:10;;;;;;;6.00;3.33;;;20.10;99.90;;;;;;5073409;28;20661;-47
2023/06/25 01:54:36;;;;;;;6.70;3.83;;;20.10;99.90;;;;;;5073504;28;20522;-47
2023/06/25 01:57:01;;;;;;;5.20;2.90;;;20.10;99.90;;;;;;5073399;28;20162;-47
2023/06/25 01:59:27;;;;;;;9.05;3.75;;;20.10;99.90;;;;;;5073423;28;20170;-47
2023/06/25 02:01:53;;;;;;;6.07;3.67;;;20.30;99.90;;;;;;5073813;28;20198;-47
2023/06/25 02:04:19;;;;;;;4.55;3.70;;;19.90;99.90;;;;;;5073925;28;20521;-47
2023/06/25 02:06:45;;;;;;;4.28;3.10;;;20.10;99.90;;;;;;5073228;28;20166;-46
2023/06/25 02:09:11;;;;;;;6.50;3.90;;;20.10;99.90;;;;;;5073006;28;20220;-47
2023/06/25 02:11:36;;;;;;;6.70;3.38;;;19.70;99.90;;;;;;5072264;28;20161;-47
2023/06/25 02:14:04;;;;;;;10.25;3.40;;;20.20;99.90;;;;;;5073003;28;20217;-47
2023/06/25 02:16:29;;;;;;;9.43;3.50;;;19.90;99.90;;;;;;5073014;28;20166;-46
2023/06/25 02:18:55;;;;;;;10.35;3.35;;;19.80;99.90;;;;;;5073211;28;20506;-46
2023/06/25 02:21:20;;;;;;;8.77;3.53;;;19.70;99.90;;;;;;5073620;28;20215;-47
2023/06/25 02:23:46;;;;;;;7.00;3.13;;;19.70;99.90;;;;;;5072871;28;20174;-47
2023/06/25 02:26:11;;;;;;;4.97;2.85;;;19.70;99.90;;;;;;5073109;28;20228;-47
2023/06/25 02:28:37;;;;;;;7.75;3.60;;;19.70;99.90;;;;;;5072799;28;20630;-47
2023/06/25 02:31:03;;;;;;;5.28;3.15;;;19.60;99.90;;;;;;5072713;28;20257;-46
2023/06/25 02:33:28;;;;;;;6.57;3.67;;;19.50;99.90;;;;;;5072841;28;20546;-47
2023/06/25 02:35:54;;;;;;;6.05;3.78;;;;;;;;;;5055137;28;20228;-46
2023/06/25 02:38:20;;;;;;;4.28;3.50;;;19.70;99.90;;;;;;5073115;28;20173;-46
2023/06/25 02:40:45;;;;;;;5.28;3.00;;;19.60;99.90;;;;;;5072619;28;20551;-47
2023/06/25 02:43:11;;;;;;;4.93;3.50;;;19.70;99.90;;;;;;5072616;28;20197;-47
2023/06/25 02:45:36;;;;;;;7.68;3.50;;;19.80;99.90;;;;;;5072652;28;20220;-47
2023/06/25 02:48:02;;;;;;;8.50;3.67;;;19.80;99.90;;;;;;5054505;28;20166;-46
2023/06/25 02:50:28;;;;;;;10.93;3.50;;;19.70;99.90;;;;;;5072386;28;20509;-46
2023/06/25 02:52:53;;;;;;;7.30;3.72;;;19.70;99.90;;;;;;5072686;28;20205;-46
2023/06/25 02:55:19;;;;;;;13.98;4.35;;;19.70;99.90;;;;;;5072658;28;20166;-47
2023/06/25 02:57:44;;;;;;;16.58;5.28;;;19.70;99.90;;;;;;5080672;28;20231;-47
2023/06/25 03:00:10;;;;;;;11.60;3.42;;;19.80;99.90;;;;;;5092285;28;20170;-46
2023/06/25 03:02:36;;;;;;;10.52;3.78;;;19.70;99.90;;;;;;5092420;28;20169;-48
2023/06/25 03:05:01;;;;;;;8.57;3.92;;;19.60;99.90;;;;;;5092473;28;20647;-47
2023/06/25 03:07:27;;;;;;;10.25;3.72;;;19.70;99.90;;;;;;5092104;28;20633;-47
2023/06/25 03:09:52;;;;;;;7.38;3.92;;;19.70;99.90;;;;;;5092697;28;20173;-46
2023/06/25 03:12:18;;;;;;;11.20;3.47;;;19.60;99.90;;;;;;5092294;28;20194;-48
2023/06/25 03:14:43;;;;;;;9.98;4.03;;;19.60;99.90;;;;;;5092325;28;20181;-49
2023/06/25 03:17:09;;;;;;;9.50;3.75;;;19.60;99.90;;;;;;5092208;28;20172;-50
2023/06/25 03:19:34;;;;;;;13.60;4.03;;;19.40;99.90;;;;;;5092479;28;20173;-49
2023/06/25 03:22:00;;;;;;;6.75;3.28;;;19.40;99.90;;;;;;5091848;28;20527;-50
2023/06/25 03:24:26;;;;;;;9.13;3.90;;;19.30;99.90;;;;;;5092125;28;20507;-50
2023/06/25 03:26:51;;;;;;;10.57;4.50;;;19.30;99.90;;;;;;5092405;28;20173;-49
2023/06/25 03:29:17;;;;;;;9.32;4.10;;;19.30;99.90;;;;;;5092051;28;20165;-50
2023/06/25 03:31:43;;;;;;;8.43;4.68;;;19.20;99.90;;;;;;5092123;28;20158;-49
2023/06/25 03:34:08;;;;;;;9.77;4.53;;;19.10;99.90;;;;;;5091871;28;20244;-50
2023/06/25 03:36:34;;;;;;;8.02;4.65;;;18.90;99.90;;;;;;5091844;28;20204;-50
2023/06/25 03:39:00;;;;;;;12.13;4.50;;;18.90;99.90;;;;;;5092067;28;20176;-50
2023/06/25 03:41:25;;;;;;;13.93;5.15;;;19.00;99.90;;;;;;5092137;28;20193;-50
2023/06/25 03:43:51;;;;;;;14.38;4.63;;;18.90;99.90;;;;;;5092246;28;20636;-48
2023/06/25 03:46:17;;;;;;;13.57;4.78;;;19.00;99.90;;;;;;5091725;28;20168;-49
2023/06/25 03:48:43;;;;;;;11.50;4.20;;;19.00;99.90;;;;;;5091722;28;20229;-49
2023/06/25 03:51:09;;;;;;;30.55;15.88;;;19.20;99.90;;;;;;5091671;28;20645;-50
2023/06/25 03:53:35;;;;;;;20.27;10.40;;;19.40;99.90;;;;;;5091528;28;20291;-50
2023/06/25 03:56:00;;;;;;;27.17;14.60;;;19.50;99.90;;;;;;5091963;28;20252;-50
2023/06/25 03:58:26;;;;;;;12.63;7.15;;;19.50;99.90;;;;;;5091638;28;20188;-50
2023/06/25 04:00:52;;;;;;;16.02;7.57;;;19.40;99.90;;;;;;5092035;28;20228;-49
2023/06/25 04:03:17;;;;;;;15.25;6.38;;;19.40;99.90;;;;;;5091533;28;20165;-51
2023/06/25 04:05:45;;;;;;;12.85;5.10;;;19.30;99.90;;;;;;5091736;28;20176;-50
2023/06/25 04:08:11;;;;;;;16.77;6.65;;;19.50;99.90;;;;;;5091537;28;20225;-49
2023/06/25 04:10:37;;;;;;;10.85;6.07;;;19.50;99.90;;;;;;5091515;28;20259;-49
2023/06/25 04:13:03;;;;;;;36.22;19.65;;;19.60;99.90;;;;;;5091448;28;20295;-49
2023/06/25 04:15:28;;;;;;;28.88;14.23;;;19.50;99.90;;;;;;5091399;28;20196;-50
2023/06/25 04:17:54;;;;;;;27.63;13.05;;;19.70;99.90;;;;;;5091486;28;20202;-49
2023/06/25 04:20:20;;;;;;;15.35;8.52;;;19.70;99.90;;;;;;5073736;28;20161;-49
2023/06/25 04:22:45;;;;;;;14.52;8.07;;;19.70;99.90;;;;;;5091639;28;20161;-49
2023/06/25 04:25:11;;;;;;;16.25;7.43;;;19.80;99.90;;;;;;5091279;28;20641;-50
2023/06/25 04:27:37;;;;;;;12.00;5.20;;;19.80;99.90;;;;;;5073362;28;20527;-48
2023/06/25 04:30:03;;;;;;;5.32;4.32;;;19.80;99.90;;;;;;5091314;28;20223;-48
2023/06/25 04:32:28;;;;;;;18.98;9.00;;;19.90;99.90;;;;;;5091508;28;20295;-50
2023/06/25 04:34:54;;;;;;;16.92;7.60;;;20.10;99.90;;;;;;5093730;28;20599;-48
2023/06/25 04:37:19;;;;;;;12.40;6.07;;;20.40;99.90;;;;;;5095633;28;20188;-49
2023/06/25 04:39:45;;;;;;;6.38;3.88;;;20.50;99.90;;;;;;5095212;28;20533;-49
2023/06/25 04:42:10;;;;;;;6.25;4.00;;;20.70;99.90;;;;;;5095058;28;20169;-48
2023/06/25 04:44:36;;;;;;;9.73;4.72;;;20.80;99.90;;;;;;5095061;28;20170;-46
2023/06/25 04:47:02;;;;;;;11.20;6.32;;;21.00;99.90;;;;;;5095082;28;20246;-46
2023/06/25 04:49:28;;;;;;;17.15;9.07;;;;;;;;;;5095262;28;20166;-47
2023/06/25 04:51:53;;;;;;;8.35;4.95;;;;;;;;;;5095304;28;20185;-46
2023/06/25 04:54:19;;;;;;;6.40;4.20;;;;;;;;;;5095202;28;20570;-46
2023/06/25 04:56:45;;;;;;;11.82;5.57;;;20.70;99.90;;;;;;5094768;28;20161;-47
2023/06/25 04:59:11;;;;;;;39.35;18.58;;;20.80;99.90;;;;;;5094822;28;20176;-46
2023/06/25 05:01:36;;;;;;;11.52;6.57;;;21.20;99.90;;;;;;5095026;28;20165;-47
2023/06/25 05:04:02;;;;;;;14.57;7.25;;;21.00;99.90;;;;;;5094721;28;20161;-46
2023/06/25 05:06:27;;;;;;;7.57;5.38;;;20.90;99.90;;;;;;5094630;28;20234;-47
2023/06/25 05:08:55;;;;;;;29.40;13.98;;;;;;;;;;5094083;28;20228;-47
2023/06/25 05:11:21;;;;;;;18.55;8.32;;;21.30;99.90;;;;;;5094851;28;20178;-47
2023/06/25 05:13:47;;;;;;;8.77;5.05;;;21.40;99.90;;;;;;5094496;28;20568;-47
2023/06/25 05:16:13;;;;;;;6.85;4.53;;;21.50;99.90;;;;;;5094367;28;20173;-48
2023/06/25 05:18:39;;;;;;;11.23;7.03;;;21.60;99.90;;;;;;5094424;28;20166;-47
2023/06/25 05:21:05;;;;;;;7.20;4.70;;;21.80;99.90;;;;;;5094240;28;20243;-46
2023/06/25 05:23:44;;;;;;;10.68;4.75;;;21.70;99.90;;;;;;5094362;28;20205;-48
2023/06/25 05:26:11;;;;;;;7.25;5.03;;;21.90;99.90;;;;;;5094208;28;20255;-47
2023/06/25 05:28:37;;;;;;;35.67;15.32;;;21.90;99.90;;;;;;5093897;28;20168;-47
2023/06/25 05:31:02;;;;;;;18.05;9.55;;;21.90;99.90;;;;;;5094466;28;20195;-46
2023/06/25 05:33:28;;;;;;;16.75;8.77;;;21.90;99.90;;;;;;5094077;28;20668;-46
2023/06/25 05:35:53;;;;;;;9.57;5.72;;;22.10;99.90;;;;;;5094207;28;20165;-45
2023/06/25 05:38:19;;;;;;;5.78;4.45;;;22.10;99.90;;;;;;5094491;28;20227;-46
2023/06/25 05:40:44;;;;;;;9.18;5.25;;;22.10;99.90;;;;;;5093980;28;20165;-46
2023/06/25 05:43:10;;;;;;;6.32;4.47;;;22.30;99.90;;;;;;5093960;28;20584;-47
2023/06/25 05:45:35;;;;;;;6.90;5.13;;;22.20;99.90;;;;;;5093645;28;20222;-46
2023/06/25 05:48:01;;;;;;;6.35;5.15;;;22.10;99.90;;;;;;5093883;28;20683;-46
2023/06/25 05:50:27;;;;;;;11.52;7.28;;;22.30;99.90;;;;;;5093780;28;20165;-46
2023/06/25 05:52:52;;;;;;;12.50;7.35;;;22.50;99.90;;;;;;5094092;28;20272;-46
2023/06/25 05:55:18;;;;;;;6.30;5.40;;;22.60;99.90;;;;;;5094052;28;20226;-47
2023/06/25 05:57:43;;;;;;;8.73;6.78;;;22.80;99.90;;;;;;5093853;28;20524;-48
2023/06/25 06:00:09;;;;;;;7.40;5.38;;;22.40;99.90;;;;;;5093894;28;20647;-49
2023/06/25 06:02:35;;;;;;;13.50;6.43;;;22.50;99.90;;;;;;5093797;28;20174;-46
2023/06/25 06:05:00;;;;;;;12.80;7.78;;;22.60;99.90;;;;;;5093451;28;20225;-47
2023/06/25 06:07:26;;;;;;;8.88;6.38;;;22.70;99.90;;;;;;5093341;28;20694;-47
2023/06/25 06:09:51;;;;;;;9.07;5.95;;;22.80;99.90;;;;;;5093843;28;20178;-47
2023/06/25 06:12:17;;;;;;;45.20;22.23;;;;;;;;;;5090919;28;20169;-47
2023/06/25 06:14:43;;;;;;;14.50;9.48;;;22.90;99.90;;;;;;5091863;28;20166;-48
2023/06/25 06:17:09;;;;;;;13.65;8.02;;;;;;;;;;5091882;28;20240;-48
2023/06/25 06:19:35;;;;;;;18.30;10.85;;;;;;;;;;5091510;28;20161;-48
2023/06/25 06:22:01;;;;;;;10.35;6.53;;;;;;;;;;5091787;28;20260;-47
2023/06/25 06:24:27;;;;;;;8.35;6.82;;;;;;;;;;5073261;28;20260;-47
2023/06/25 06:26:53;;;;;;;18.45;10.20;;;23.30;99.90;;;;;;5091455;28;20218;-47
2023/06/25 06:29:19;;;;;;;24.33;15.07;;;;;;;;;;5091749;28;20173;-49
2023/06/25 06:31:45;;;;;;;11.45;7.32;;;23.40;99.90;;;;;;5091313;28;20614;-49
2023/06/25 06:34:11;;;;;;;8.50;7.03;;;23.50;99.90;;;;;;5091176;28;20223;-49
2023/06/25 06:36:37;;;;;;;32.03;17.00;;;;;;;;;;5091184;28;20225;-50
2023/06/25 06:39:04;;;;;;;10.75;8.35;;;;;;;;;;5091274;28;20175;-51
2023/06/25 06:41:30;;;;;;;9.18;7.00;;;;;;;;;;5091393;28;20176;-50
2023/06/25 06:44:10;;;;;;;14.35;7.22;;;23.80;99.90;;;;;;5091204;28;20169;-49
2023/06/25 06:46:36;;;;;;;18.40;8.80;;;;;;;;;;5091115;28;20158;-49
2023/06/25 06:49:01;;;;;;;10.25;7.43;;;23.90;99.90;;;;;;5091283;28;20174;-49
2023/06/25 06:51:27;;;;;;;15.65;9.82;;;23.90;99.90;;;;;;5091085;28;20165;-49
2023/06/25 06:53:53;;;;;;;16.40;9.38;;;;;;;;;;5090937;28;20838;-50
2023/06/25 06:56:18;;;;;;;26.92;13.27;;;24.10;99.90;;;;;;5090713;28;20730;-49
2023/06/25 06:58:44;;;;;;;13.55;8.30;;;24.30;99.90;;;;;;5090988;28;20590;-49
2023/06/25 07:01:10;;;;;;;21.38;11.77;;;;;;;;;;5090525;28;20184;-50
2023/06/25 07:03:36;;;;;;;13.35;8.70;;;;;;;;;;5090895;28;20526;-49
2023/06/25 07:06:02;;;;;;;12.55;7.75;;;;;;;;;;5090770;28;20253;-49
2023/06/25 07:08:27;;;;;;;10.18;7.38;;;24.50;99.90;;;;;;5090495;28;20354;-50
2023/06/25 07:10:53;;;;;;;9.45;6.95;;;24.40;99.90;;;;;;5090736;28;20164;-50
2023/06/25 07:13:18;;;;;;;14.02;9.27;;;24.70;99.90;;;;;;5090970;28;20200;-50
2023/06/25 07:15:44;;;;;;;14.95;9.18;;;24.90;99.90;;;;;;5090778;28;20208;-50
2023/06/25 07:18:10;;;;;;;10.10;6.75;;;;;;;;;;5090600;28;20165;-50
2023/06/25 07:20:36;;;;;;;12.82;7.88;;;;;;;;;;5090474;28;20523;-50
2023/06/25 07:23:01;;;;;;;11.95;7.32;;;25.30;99.90;;;;;;5090297;28;20200;-50
2023/06/25 07:25:27;;;;;;;9.23;6.75;;;;;;;;;;5090319;28;20185;-50
2023/06/25 07:27:53;;;;;;;9.55;7.03;;;;;;;;;;5090615;28;20267;-50
2023/06/25 07:30:19;;;;;;;11.23;7.70;;;25.30;99.90;;;;;;5090708;28;20169;-50
2023/06/25 07:32:45;;;;;;;8.38;6.90;;;;;;;;;;5090380;28;20196;-50
2023/06/25 07:35:11;;;;;;;6.95;6.20;;;;;;;;;;5090478;28;20532;-50
2023/06/25 07:37:36;;;;;;;7.78;6.22;;;25.60;99.90;;;;;;5090547;28;20508;-49
2023/06/25 07:40:02;;;;;;;12.45;6.22;;;25.80;99.90;;;;;;5090629;28;20177;-50
2023/06/25 07:42:28;;;;;;;6.88;6.18;;;;;;;;;;5090456;28;20219;-49
2023/06/25 07:44:53;;;;;;;11.57;6.53;;;26.00;99.90;;;;;;5090330;28;20167;-49
2023/06/25 07:47:19;;;;;;;8.43;6.78;;;26.10;99.90;;;;;;5072490;28;20632;-50
2023/06/25 07:49:45;;;;;;;8.02;6.70;;;;;;;;;;5090188;28;20169;-49
2023/06/25 07:52:11;;;;;;;9.65;6.80;;;26.00;99.90;;;;;;5089777;28;20192;-49
2023/06/25 07:54:37;;;;;;;8.65;6.47;;;;;;;;;;5090197;28;20204;-50
2023/06/25 07:57:03;;;;;;;7.93;6.82;;;;;;;;;;5090166;28;20160;-50
2023/06/25 07:59:29;;;;;;;9.10;6.45;;;;;;;;;;5089202;28;20173;-49
2023/06/25 08:01:55;;;;;;;8.63;6.22;;;26.50;99.90;;;;;;5090075;28;20168;-50
2023/06/25 08:04:20;;;;;;;7.03;6.32;;;26.60;99.90;;;;;;5072262;28;20164;-50
2023/06/25 08:06:46;;;;;;;10.07;6.88;;;;;;;;;;5090335;28;20168;-50
2023/06/25 08:09:12;;;;;;;8.18;6.00;;;;;;;;;;5091087;28;20216;-50
2023/06/25 08:11:38;;;;;;;6.43;5.82;;;;;;;;;;5094160;28;20180;-50
2023/06/25 08:14:04;;;;;;;8.02;6.20;;;;;;;;;;5094118;28;20208;-50
2023/06/25 08:16:29;;;;;;;7.30;6.28;;;27.00;99.90;;;;;;5094277;28;20251;-50
2023/06/25 08:18:55;;;;;;;9.25;6.25;;;26.80;99.90;;;;;;5094151;28;20777;-50
2023/06/25 08:21:21;;;;;;;7.07;6.10;;;26.90;99.90;;;;;;5094442;28;20560;-49
2023/06/25 08:23:46;;;;;;;8.48;6.55;;;27.20;99.90;;;;;;5094041;28;20214;-49
2023/06/25 08:26:15;;;;;;;6.95;5.75;;;27.20;99.90;;;;;;5093873;28;20624;-50
2023/06/25 08:28:42;;;;;;;10.00;6.47;;;27.40;99.90;;;;;;5094182;28;20168;-50
2023/06/25 08:31:08;;;;;;;8.85;6.03;;;;;;;;;;5094204;28;20257;-50
2023/06/25 08:33:34;;;;;;;8.23;6.03;;;;;;;;;;5093822;28;20288;-50
2023/06/25 08:36:00;;;;;;;9.27;5.70;;;;;;;;;;5075433;28;20169;-50
2023/06/25 08:38:26;;;;;;;9.70;6.35;;;27.70;99.90;;;;;;5093622;28;20646;-49
2023/06/25 08:40:53;;;;;;;6.97;6.22;;;;;;;;;;5093768;28;20184;-49
2023/06/25 08:43:19;;;;;;;7.38;5.82;;;28.10;99.90;;;;;;5094038;28;20193;-49
2023/06/25 08:45:46;;;;;;;6.15;5.55;;;;;;;;;;5093576;28;20176;-50
2023/06/25 08:48:15;;;;;;;6.65;5.93;;;28.30;99.90;;;;;;5080665;28;20165;-49
2023/06/25 08:50:43;;;;;;;7.20;6.03;;;28.40;99.90;;;;;;5072749;28;20169;-49
2023/06/25 08:53:09;;;;;;;7.07;6.10;;;28.30;99.90;;;;;;5074234;28;20305;-49
2023/06/25 08:55:35;;;;;;;8.70;6.10;;;;;;;;;;5073530;28;20173;-50
2023/06/25 08:58:01;;;;;;;10.77;6.28;;;28.50;99.90;;;;;;5073189;28;20636;-50
2023/06/25 09:00:27;;;;;;;10.90;5.85;;;;;;;;;;5073039;28;20248;-50
2023/06/25 09:02:54;;;;;;;7.22;6.18;;;28.80;99.90;;;;;;5073010;28;20242;-50
2023/06/25 09:05:25;;;;;;;6.95;5.20;;;28.70;99.90;;;;;;5073557;28;20174;-50
2023/06/25 09:07:50;;;;;;;5.60;4.95;;;29.10;99.90;;;;;;5073090;28;20205;-50
2023/06/25 09:10:16;;;;;;;5.63;5.13;;;29.30;99.90;;;;;;5072882;28;20578;-50
2023/06/25 09:12:48;;;;;;;5.38;4.68;;;;;;;;;;5072699;28;20706;-49
2023/06/25 09:15:26;;;;;;;7.40;5.30;;;29.20;99.90;;;;;;5072945;28;20174;-49
2023/06/25 09:17:56;;;;;;;5.72;4.53;;;29.20;99.90;;;;;;5054767;28;20170;-49
2023/06/25 09:20:22;;;;;;;4.65;4.25;;;29.30;99.90;;;;;;5072121;28;20629;-50
2023/06/25 09:22:49;;;;;;;4.88;4.47;;;;;;;;;;5073009;28;20252;-50
2023/06/25 09:25:15;;;;;;;6.22;5.35;;;29.20;99.90;;;;;;5072588;28;20158;-50
2023/06/25 09:27:41;;;;;;;6.30;5.05;;;;;;;;;;5072556;28;20222;-50
2023/06/25 09:30:10;;;;;;;7.47;4.57;;;;;;;;;;5072507;28;20169;-50
2023/06/25 09:32:36;;;;;;;6.13;5.57;;;;;;;;;;5072343;28;20193;-50
2023/06/25 09:35:05;;;;;;;6.72;5.18;;;;;;;;;;5072378;28;20177;-50
2023/06/25 09:37:36;;;;;;;6.93;4.95;;;29.80;99.90;;;;;;5072324;28;20166;-50
2023/06/25 09:40:01;;;;;;;5.47;4.97;;;30.20;99.90;;;;;;5072320;28;20180;-50
2023/06/25 09:42:27;;;;;;;7.18;4.95;;;;;;;;;;5072273;28;20170;-50
2023/06/25 09:44:53;;;;;;;6.15;4.32;;;29.90;99.90;;;;;;5072238;28;20201;-50
2023/06/25 09:47:20;;;;;;;5.40;4.90;;;30.10;99.90;;;;;;5072463;28;20188;-50
2023/06/25 09:49:46;;;;;;;5.75;5.28;;;;;;;;;;5072083;28;20173;-50
2023/06/25 09:52:14;;;;;;;4.70;4.30;;;30.20;99.90;;;;;;5071918;28;20196;-50
2023/06/25 09:54:41;;;;;;;5.53;5.03;;;;;;;;;;5072318;28;20174;-50
2023/06/25 09:57:10;;;;;;;6.75;4.80;;;30.30;98.30;;;;;;5071821;28;20652;-50
2023/06/25 09:59:39;;;;;;;5.38;4.75;;;;;;;;;;5071954;28;20173;-50
2023/06/25 10:02:06;;;;;;;8.18;4.85;;;;;;;;;;5071938;28;20204;-50
2023/06/25 10:04:33;;;;;;;4.90;4.50;;;30.40;97.10;;;;;;5072115;28;20239;-50
2023/06/25 10:06:59;;;;;;;5.15;4.70;;;30.50;97.10;;;;;;5071686;28;20161;-50
2023/06/25 10:09:24;;;;;;;6.60;5.00;;;30.40;96.90;;;;;;5071590;28;20696;-50
2023/06/25 10:11:51;;;;;;;5.60;4.93;;;;;;;;;;5072231;28;20165;-50
2023/06/25 10:14:17;;;;;;;7.20;4.90;;;30.30;95.30;;;;;;5072211;28;20238;-50
2023/06/25 10:16:51;;;;;;;5.47;4.97;;;;;;;;;;5071781;28;20635;-51
2023/06/25 10:19:21;;;;;;;4.95;4.45;;;;;;;;;;5071893;28;20621;-50
2023/06/25 10:21:58;;;;;;;5.75;4.70;;;30.60;94.10;;;;;;5071903;28;20162;-50
2023/06/25 10:24:23;;;;;;;4.93;4.53;;;30.60;93.20;;;;;;5053419;28;20260;-50
2023/06/25 10:26:53;;;;;;;5.53;5.03;;;30.80;93.10;;;;;;5071666;28;20593;-50
2023/06/25 10:29:19;;;;;;;5.60;4.53;;;;;;;;;;5071908;28;20177;-50
2023/06/25 10:31:46;;;;;;;5.80;4.82;;;;;;;;;;5070448;28;20625;-50
2023/06/25 10:34:13;;;;;;;5.22;4.72;;;30.90;91.80;;;;;;5071151;28;20282;-50
2023/06/25 10:36:49;;;;;;;12.63;8.43;;;;;;;;;;5070741;28;20244;-50
2023/06/25 10:39:14;;;;;;;7.30;6.57;;;30.80;91.40;;;;;;5071338;28;20184;-50
2023/06/25 10:41:47;;;;;;;7.30;5.80;;;31.00;92.20;;;;;;5071145;28;20166;-49
2023/06/25 10:44:12;;;;;;;6.90;5.20;;;31.00;91.40;;;;;;5070884;28;20651;-50
2023/06/25 10:46:38;;;;;;;6.78;5.07;;;31.30;92.60;;;;;;5070963;28;20169;-50
2023/06/25 10:49:04;;;;;;;5.50;4.97;;;;;;;;;;5070983;28;20326;-50
2023/06/25 10:51:30;;;;;;;5.45;4.95;;;31.30;90.40;;;;;;5052613;28;20197;-50
2023/06/25 10:53:56;;;;;;;19.77;14.18;;;31.20;90.70;;;;;;5070730;28;20694;-50
2023/06/25 10:56:25;;;;;;;14.38;12.15;;;31.30;91.10;;;;;;5070778;28;20166;-50
2023/06/25 10:58:54;;;;;;;5.88;4.97;;;;;;;;;;5071286;28;20539;-50
2023/06/25 11:01:20;;;;;;;12.70;10.35;;;31.30;91.10;;;;;;5071078;28;20165;-50
2023/06/25 11:03:46;;;;;;;5.90;4.97;;;;;;;;;;5070636;28;20243;-50
2023/06/25 11:06:12;;;;;;;7.47;5.38;;;;;;;;;;5071210;28;20527;-50
2023/06/25 11:08:40;;;;;;;5.97;4.90;;;;;;;;;;5070022;28;20217;-49
2023/06/25 11:11:06;;;;;;;7.45;5.20;;;;;;;;;;5084818;28;20524;-50
2023/06/25 11:13:32;;;;;;;18.88;15.40;;;31.40;91.50;;;;;;5090192;28;20208;-50
2023/06/25 11:15:57;;;;;;;6.05;5.45;;;;;;;;;;5090676;28;20165;-50
2023/06/25 11:18:23;;;;;;;7.10;5.43;;;;;;;;;;5090452;28;20675;-50
2023/06/25 11:20:49;;;;;;;7.82;5.30;;;31.50;91.70;;;;;;5090350;28;20528;-49
2023/06/25 11:23:15;;;;;;;8.52;7.13;;;31.40;90.90;;;;;;5089774;28;20157;-49
2023/06/25 11:25:41;;;;;;;12.07;7.60;;;31.50;90.40;;;;;;5090009;28;21149;-49
2023/06/25 11:28:13;;;;;;;13.70;10.60;;;;;;;;;;5090561;28;20564;-49
2023/06/25 11:30:40;;;;;;;6.97;4.82;;;;;;;;;;5090294;28;20157;-49
2023/06/25 11:33:13;;;;;;;14.70;11.75;;;;;;;;;;5090173;28;20205;-50
2023/06/25 11:35:39;;;;;;;6.78;5.07;;;31.70;89.80;;;;;;5089763;28;20164;-50
2023/06/25 11:38:05;;;;;;;8.88;7.57;;;;;;;;;;5090212;28;20177;-50
2023/06/25 11:40:33;;;;;;;5.97;5.38;;;32.30;89.70;;;;;;5090136;28;20774;-50
2023/06/25 11:42:59;;;;;;;7.82;6.95;;;;;;;;;;5089868;28;20256;-50
2023/06/25 11:45:25;;;;;;;6.43;5.18;;;32.20;88.20;;;;;;5089848;28;20179;-50
2023/06/25 11:47:56;;;;;;;8.65;7.43;;;;;;;;;;5090058;28;20160;-50
2023/06/25 11:50:23;;;;;;;7.22;6.43;;;32.30;86.70;;;;;;5089613;28;20176;-50
2023/06/25 11:52:49;;;;;;;5.90;5.35;;;;;;;;;;5090203;28;20567;-50
2023/06/25 11:55:15;;;;;;;7.78;6.93;;;32.10;87.30;;;;;;5089884;28;20173;-50
2023/06/25 11:57:40;;;;;;;11.50;9.55;;;32.20;87.00;;;;;;5089982;28;20202;-50
2023/06/25 12:00:07;;;;;;;7.57;6.00;;;;;;;;;;5089736;28;20169;-49
2023/06/25 12:02:33;;;;;;;5.60;5.07;;;;;;;;;;5089922;28;20184;-49
2023/06/25 12:04:59;;;;;;;5.45;4.80;;;;;;;;;;5089972;28;20196;-50
2023/06/25 12:07:25;;;;;;;6.13;4.75;;;;;;;;;;5089878;28;20271;-50
2023/06/25 12:09:51;;;;;;;6.47;5.35;;;;;;;;;;5090489;28;20255;-50
2023/06/25 12:12:17;;;;;;;5.72;5.03;;;;;;;;;;5090024;28;20244;-50
2023/06/25 12:14:44;;;;;;;5.28;4.78;;;32.60;85.50;;;;;;5089818;28;20248;-50
2023/06/25 12:17:10;;;;;;;9.75;8.70;;;32.50;85.20;;;;;;5089873;28;20165;-50
2023/06/25 12:19:36;;;;;;;7.35;4.72;;;33.00;89.00;;;;;;5089846;28;20169;-50
2023/06/25 12:22:02;;;;;;;9.35;8.40;;;32.90;85.10;;;;;;5090050;28;20180;-50
2023/06/25 12:24:27;;;;;;;4.60;4.20;;;33.00;87.50;;;;;;5089683;28;20164;-50
2023/06/25 12:26:54;;;;;;;5.32;4.70;;;;;;;;;;5089050;28;20196;-50
2023/06/25 12:29:20;;;;;;;5.70;5.20;;;32.50;86.30;;;;;;5090235;28;20169;-50
2023/06/25 12:31:45;;;;;;;8.02;6.90;;;32.50;86.40;;;;;;5089619;28;20169;-50
2023/06/25 12:34:11;;;;;;;5.82;5.22;;;32.80;82.90;;;;;;5089867;28;20204;-50
2023/06/25 12:36:37;;;;;;;12.73;9.15;;;32.70;84.00;;;;;;5089646;28;20667;-50
2023/06/25 12:39:03;;;;;;;5.82;5.13;;;32.70;82.50;;;;;;5089748;28;20204;-50
2023/06/25 12:41:28;;;;;;;6.07;5.18;;;32.70;81.80;;;;;;5089697;28;20516;-49
2023/06/25 12:43:54;;;;;;;5.30;4.78;;;;;;;;;;5089773;28;20169;-49
2023/06/25 12:46:20;;;;;;;6.47;5.53;;;;;;;;;;5089936;28;20176;-50
2023/06/25 12:48:46;;;;;;;10.38;8.18;;;32.90;83.40;;;;;;5089865;28;20256;-50
2023/06/25 12:51:12;;;;;;;5.32;4.82;;;32.90;82.50;;;;;;5089528;28;20751;-50
2023/06/25 12:53:38;;;;;;;5.88;5.18;;;33.10;83.30;;;;;;5089785;28;20667;-50
2023/06/25 12:56:04;;;;;;;6.13;5.22;;;;;;;;;;5092305;28;20161;-50
2023/06/25 12:58:29;;;;;;;5.40;4.90;;;33.20;81.90;;;;;;5093319;28;20175;-49
2023/06/25 13:00:55;;;;;;;6.13;5.43;;;;;;;;;;5093435;28;20161;-50
2023/06/25 13:03:21;;;;;;;14.57;9.10;;;;;;;;;;5093298;28;20196;-50
2023/06/25 13:05:47;;;;;;;6.85;5.55;;;32.60;80.60;;;;;;5075439;28;20230;-50
2023/06/25 13:08:13;;;;;;;7.00;6.00;;;32.50;83.10;;;;;;5074955;28;20742;-50